Terminal Aerodrome Forecast
Issued by NWS Riverton, WY

Home | Current Version | Previous Version | Text Only | Print | Product List | Glossary On
Versions: 1 2 3 4 5 6 7 8 9 10 11 12 13 14 15 16 17
000
FTUS45 KRIW 230524
TAFRIW
TAF
KRIW 230524Z 2306/2406 34007KT 4SM -RA BR BKN008
      TEMPO 2306/2309 P6SM -RA SCT008 BKN017
     FM230900 04007KT P6SM SCT009 BKN019
     FM232000 04009KT P6SM -RA BKN008 OVC015=

USA.gov is the U.S. government's official web portal to all federal, state and local government web resources and services.